Other Surface Observations
Issued by NWS Missoula, MT

Home | Current Version | Previous Version | Text Only | Print | Product List | Glossary On
Versions: 1 2 3 4 5 6 7 8 9 10 11 12 13 14 15 16 17 18 19 20 21 22 23 24 25 26 27 28 29 30 31 32 33 34 35 36 37 38 39 40 41 42 43 44 45 46 47 48 49 50
000
SXUS55 KMSO 280224
OSOMSO
MONTANA AWOS SUMMARY
NATIONAL WEATHER SERVICE MISSOULA MT
823 PM MDT WED MAY 27 2015

Montana AWOS Reports

SCOBEY      |K9S2 271355Z AUTO 00000KT 15SM 14/07 A2994 RMK AO1 T01390067
LAUREL      |K6S8 271555Z AUTO 00000KT 10SM 16/09 A2999 RMK AO1 T01560089
LAUREL      |K6S8 271535Z AUTO 00000KT 40SM 15/08 A2999 RMK AO1 T01500083
LAUREL      |K6S8 271515Z AUTO 00000KT 40SM 14/08 A2999 RMK AO1 T01440083
LAUREL      |K6S8 271455Z AUTO 20004KT 40SM 14/09 A2999 RMK AO1 T01390089
LAUREL      |K6S8 271435Z AUTO 00000KT 40SM 13/09 A2999 RMK AO1 T01280089
LAUREL      |K6S8 280135Z AUTO 32013G17KT 40SM 16/05 A2997 RMK AO1 T01560050
LAUREL      |K6S8 280115Z AUTO 30014G18KT 40SM 17/06 A2997 RMK AO1 T01670061
LAUREL      |K6S8 280055Z AUTO 00000KT 40SM 18/06 A2995 RMK AO1 T01830061
LAUREL      |K6S8 280035Z AUTO 00000KT 40SM 18/07 A2995 RMK AO1 T01780067
LAUREL      |K6S8 280015Z AUTO 00000KT 40SM 17/07 A2995 RMK AO1 T01720067
LAUREL      |K6S8 272355Z AUTO 00000KT 40SM 17/06 A2995 RMK AO1 T01720061
LAUREL      |K6S8 272335Z AUTO 00000KT 40SM 18/07 A2995 RMK AO1 T01780067
LAUREL      |K6S8 272315Z AUTO 00000KT 40SM 18/07 A2994 RMK AO1 T01780072
LAUREL      |K6S8 272255Z AUTO 00000KT 40SM 18/08 A2994 RMK AO1 T01830078
LAUREL      |K6S8 272235Z AUTO 00000KT 40SM 18/08 A2994 RMK AO1 T01830078
LAUREL      |K6S8 272215Z AUTO 04006KT 40SM 18/07 A2995 RMK AO1 T01780072
LAUREL      |K6S8 272155Z AUTO 36005KT 40SM 18/08 A2996 RMK AO1 T01780078
LAUREL      |K6S8 272135Z AUTO 02008KT 40SM 17/08 A2996 RMK AO1 T01720083
LAUREL      |K6S8 272115Z AUTO 34008KT 40SM 17/08 A2996 RMK AO1 T01670083
LAUREL      |K6S8 272055Z AUTO 30007KT 40SM 16/10 A2996 RMK AO1 T01560100
LAUREL      |K6S8 272035Z AUTO 00000KT 2SM HZ 13/08 A2996 RMK AO1 T01330083
LAUREL      |K6S8 272015Z AUTO 25010KT 4SM HZ 13/08 A2998 RMK AO1 T01280078
LAUREL      |K6S8 271955Z AUTO 22006KT 2SM HZ 12/06 A2999 RMK AO1 T01220061
LAUREL      |K6S8 271935Z AUTO 22014G18KT 3 1/2SM HZ 16/08 A2998 RMK AO1 T01560078
LAUREL      |K6S8 271915Z AUTO 00000KT 40SM 18/07 A2997 RMK AO1 T01830072
LAUREL      |K6S8 271855Z AUTO 00000KT 40SM 18/07 A2997 RMK AO1 T01830072
LAUREL      |K6S8 271835Z AUTO 00000KT 40SM 19/09 A2997 RMK AO1 T01890094
LAUREL      |K6S8 271815Z AUTO 00000KT 40SM 18/08 A2998 RMK AO1 T01830083
LAUREL      |K6S8 271755Z AUTO 00000KT 40SM 18/09 A2998 RMK AO1 T01780089
LAUREL      |K6S8 271735Z AUTO 00000KT 40SM 18/09 A2998 RMK AO1 T01780089
LAUREL      |K6S8 271715Z AUTO 00000KT 40SM 17/09 A2999 RMK AO1 T01720089
LAUREL      |K6S8 271655Z AUTO 00000KT 40SM 16/08 A2999 RMK AO1 T01610083
LAUREL      |K6S8 271635Z AUTO 00000KT 40SM 16/09 A2999 RMK AO1 T01610089
LAUREL      |K6S8 271615Z AUTO 00000KT 40SM 16/09 A2999 RMK AO1 T01610089
TWIN BRIDGES|K7S1 272135Z AUTO 11007KT 40SM 14/06 A3002 RMK AO1 T01440061
TWIN BRIDGES|K7S1 272155Z AUTO 12006KT 40SM 15/07 A3002 RMK AO1 T01500067
TWIN BRIDGES|K7S1 272215Z AUTO 11009G14KT 40SM 16/06 A3001 RMK AO1 T01560061
TWIN BRIDGES|K7S1 272235Z AUTO 12011G15KT 40SM 16/06 A3001 RMK AO1 T01560061
TWIN BRIDGES|K7S1 272255Z AUTO 12012G17KT 40SM 16/06 A3002 RMK AO1 T01560061
TWIN BRIDGES|K7S1 272315Z AUTO 11009KT 40SM 16/05 A3002 RMK AO1 T01610050
TWIN BRIDGES|K7S1 272335Z AUTO 25016KT 40SM 14/06 A3003 RMK AO1 T01440061
TWIN BRIDGES|K7S1 272355Z AUTO 25015KT 40SM 12/05 A3003 RMK AO1 T01220050
TWIN BRIDGES|K7S1 280015Z AUTO 23006KT 2SM HZ 11/05 A3005 RMK AO1 T01060050
TWIN BRIDGES|K7S1 280035Z AUTO 08009KT 7SM 11/07 A3005 RMK AO1 T01060067
TWIN BRIDGES|K7S1 280055Z AUTO 11010G14KT 25SM 11/07 A3003 RMK AO1 T01060067
TWIN BRIDGES|K7S1 280115Z AUTO 11007KT 40SM 11/07 A3003 RMK AO1 T01110067
TWIN BRIDGES|K7S1 280135Z AUTO 00000KT 40SM 11/06 A3003 RMK AO1 T01110056
TWIN BRIDGES|K7S1 271435Z AUTO 00000KT 40SM 12/07 A3004 RMK AO1 T01170072
TWIN BRIDGES|K7S1 271455Z AUTO 00000KT 40SM 12/08 A3004 RMK AO1 T01170078
TWIN BRIDGES|K7S1 271515Z AUTO 00000KT 40SM 12/07 A3004 RMK AO1 T01170072
TWIN BRIDGES|K7S1 271535Z AUTO 00000KT 40SM 12/07 A3004 RMK AO1 T01220072
TWIN BRIDGES|K7S1 271555Z AUTO 00000KT 40SM 13/07 A3004 RMK AO1 T01280072
TWIN BRIDGES|K7S1 271615Z AUTO 00000KT 40SM 13/07 A3004 RMK AO1 T01280067
TWIN BRIDGES|K7S1 271635Z AUTO 18005KT 40SM 14/08 A3003 RMK AO1 T01390078
TWIN BRIDGES|K7S1 271655Z AUTO 00000KT 40SM 14/07 A3003 RMK AO1 T01390067
TWIN BRIDGES|K7S1 271735Z AUTO 00000KT 40SM 16/07 A3002 RMK AO1 T01560072
TWIN BRIDGES|K7S1 271755Z AUTO 00000KT 40SM 16/07 A3001 RMK AO1 T01560067
TWIN BRIDGES|K7S1 271815Z AUTO 00000KT 40SM 16/06 A3001 RMK AO1 T01610061
TWIN BRIDGES|K7S1 271835Z AUTO 00000KT 40SM 16/06 A3001 RMK AO1 T01610061
TWIN BRIDGES|K7S1 271855Z AUTO 00000KT 40SM 16/06 A3001 RMK AO1 T01610056
TWIN BRIDGES|K7S1 271915Z AUTO 24007KT 40SM 16/06 A3001 RMK AO1 T01560056
TWIN BRIDGES|K7S1 271935Z AUTO 25016G20KT 40SM 16/06 A3002 RMK AO1 T01560061
TWIN BRIDGES|K7S1 271955Z AUTO 25013G19KT 40SM 13/04 A3003 RMK AO1 T01280044
TWIN BRIDGES|K7S1 272015Z AUTO 23007KT 10SM 12/07 A3004 RMK AO1 T01170067
TWIN BRIDGES|K7S1 272035Z AUTO 12005KT 40SM 12/07 A3004 RMK AO1 T01170067
TWIN BRIDGES|K7S1 272055Z AUTO 08005KT 40SM 13/07 A3003 RMK AO1 T01280067
TWIN BRIDGES|K7S1 272115Z AUTO 13004KT 40SM 13/05 A3003 RMK AO1 T01330050
ROUNDUP     |KRPX 272335Z AUTO 00000KT 40SM 19/09 A2987 RMK AO1 T01940089
ROUNDUP     |KRPX 272035Z AUTO 01005KT 40SM 15/11 A2991 RMK AO1 T01500106
ROUNDUP     |KRPX 272015Z AUTO 00000KT 40SM 14/11 A2991 RMK AO1 T01390111
ROUNDUP     |KRPX 271955Z AUTO 00000KT 25SM 12/09 A2992 RMK AO1 T01170089
ROUNDUP     |KRPX 271935Z AUTO 00000KT 3 1/2SM HZ 11/08 A2993 RMK AO1 T01060078
ROUNDUP     |KRPX 271915Z AUTO 27006KT 1 1/2SM HZ 11/07 A2993 RMK AO1 T01060072
ROUNDUP     |KRPX 271855Z AUTO 28010G17KT 5SM HZ 16/09 A2992 RMK AO1 T01560094
ROUNDUP     |KRPX 271835Z AUTO 00000KT 40SM 17/10 A2990 RMK AO1 T01720100
ROUNDUP     |KRPX 271815Z AUTO 04004KT 40SM 18/10 A2990 RMK AO1 T01780100
ROUNDUP     |KRPX 272315Z AUTO 00000KT 40SM 19/08 A2988 RMK AO1 T01890078
ROUNDUP     |KRPX 271755Z AUTO 05007KT 40SM 17/10 A2990 RMK AO1 T01720100
ROUNDUP     |KRPX 271735Z AUTO 05006KT 40SM 17/09 A2991 RMK AO1 T01720094
ROUNDUP     |KRPX 271715Z AUTO 00000KT 40SM 18/10 A2991 RMK AO1 T01780100
ROUNDUP     |KRPX 271655Z AUTO 02005KT 40SM 17/09 A2991 RMK AO1 T01720089
ROUNDUP     |KRPX 271635Z AUTO 35004KT 40SM 17/09 A2991 RMK AO1 T01720094
ROUNDUP     |KRPX 271615Z AUTO 00000KT 40SM 17/09 A2992 RMK AO1 T01670094
ROUNDUP     |KRPX 271555Z AUTO 00000KT 40SM 16/10 A2992 RMK AO1 T01610100
ROUNDUP     |KRPX 271535Z AUTO 00000KT 40SM 16/10 A2992 RMK AO1 T01560100
ROUNDUP     |KRPX 271515Z AUTO 00000KT 40SM 15/11 A2992 RMK AO1 T01500106
ROUNDUP     |KRPX 272255Z AUTO 05004KT 40SM 19/08 A2987 RMK AO1 T01890078
ROUNDUP     |KRPX 271455Z AUTO 00000KT 40SM 14/09 A2992 RMK AO1 T01440094
ROUNDUP     |KRPX 271435Z AUTO 00000KT 40SM 14/09 A2991 RMK AO1 T01390094
ROUNDUP     |KRPX 272235Z AUTO 00000KT 40SM 18/08 A2987 RMK AO1 T01830078
ROUNDUP     |KRPX 272215Z AUTO 00000KT 40SM 18/09 A2987 RMK AO1 T01830089
ROUNDUP     |KRPX 272155Z AUTO 09004KT 40SM 18/07 A2988 RMK AO1 T01780072
ROUNDUP     |KRPX 272135Z AUTO 00000KT 40SM 17/08 A2989 RMK AO1 T01720078
ROUNDUP     |KRPX 272115Z AUTO 02005KT 40SM 17/09 A2990 RMK AO1 T01720089
ROUNDUP     |KRPX 272055Z AUTO 01005KT 40SM 16/09 A2990 RMK AO1 T01610089
ROUNDUP     |KRPX 272355Z AUTO 00000KT 40SM 19/08 A2987 RMK AO1 T01890078
ROUNDUP     |KRPX 280015Z AUTO 00000KT 40SM 19/08 A2987 RMK AO1 T01890083
ROUNDUP     |KRPX 280035Z AUTO 00000KT 40SM 18/08 A2987 RMK AO1 T01780078
ROUNDUP     |KRPX 280055Z AUTO 00000KT 40SM 18/08 A2987 RMK AO1 T01780078
ROUNDUP     |KRPX 280115Z AUTO 00000KT 40SM 17/08 A2988 RMK AO1 T01720083
ROUNDUP     |KRPX 280135Z AUTO 00000KT 40SM 17/09 A2988 RMK AO1 T01720094
ROUNDUP     |KRPX 280155Z AUTO 00000KT 40SM 17/09 A2988 RMK AO1 T01670089
LAUREL      |K6S8 280155Z AUTO 34006KT 40SM 16/06 A2997 RMK AO1 T01560056
TWIN BRIDGES|K7S1 280155Z AUTO 00000KT 40SM 12/05 A3003 RMK AO1 T01170050
MALTA       |KM75 271435Z AUTO 00000KT 40SM 14/11 A2992 RMK AO1 T01440111
MALTA       |KM75 271455Z AUTO 00000KT 40SM 15/12 A2992 RMK AO1 T01500117
MALTA       |KM75 271515Z AUTO 00000KT 40SM 16/12 A2993 RMK AO1 T01560117
MALTA       |KM75 271535Z AUTO 00000KT 40SM 16/11 A2993 RMK AO1 T01560111
MALTA       |KM75 271555Z AUTO 05008KT 40SM 17/11 A2993 RMK AO1 T01670111
MALTA       |KM75 271615Z AUTO 04006KT 40SM 18/12 A2993 RMK AO1 T01780117
MALTA       |KM75 271635Z AUTO 04005KT 40SM 18/11 A2993 RMK AO1 T01780111
MALTA       |KM75 271655Z AUTO 02006KT 40SM 18/11 A2993 RMK AO1 T01830106
MALTA       |KM75 271715Z AUTO 04005KT 40SM 19/12 A2993 RMK AO1 T01940122
MALTA       |KM75 271735Z AUTO 06007KT 40SM 19/11 A2993 RMK AO1 T01940106
MALTA       |KM75 271755Z AUTO 07004KT 40SM 20/11 A2992 RMK AO1 T02000111
MALTA       |KM75 271815Z AUTO 00000KT 40SM 21/12 A2991 RMK AO1 T02110117
MALTA       |KM75 271835Z AUTO 00000KT 40SM 21/11 A2991 RMK AO1 T02110111
MALTA       |KM75 271855Z AUTO 04004KT 40SM 22/12 A2990 RMK AO1 T02170117
MALTA       |KM75 271915Z AUTO 00000KT 40SM 22/11 A2990 RMK AO1 T02220106
MALTA       |KM75 271935Z AUTO 00000KT 40SM 23/09 A2989 RMK AO1 T02280094
MALTA       |KM75 271955Z AUTO 00000KT 40SM 23/10 A2989 RMK AO1 T02280100
MALTA       |KM75 272015Z AUTO 00000KT 40SM 23/07 A2989 RMK AO1 T02280072
MALTA       |KM75 272035Z AUTO 00000KT 40SM 23/07 A2988 RMK AO1 T02280067
MALTA       |KM75 272055Z AUTO 00000KT 40SM 23/09 A2988 RMK AO1 T02280089
MALTA       |KM75 272115Z AUTO 24007KT 40SM 23/09 A2987 RMK AO1 T02280089
MALTA       |KM75 272135Z AUTO 00000KT 40SM 22/09 A2987 RMK AO1 T02220089
MALTA       |KM75 272215Z AUTO 40SM 21/11 A2986 RMK AO1 T02060106
MALTA       |KM75 272235Z AUTO 25008KT 40SM 21/11 A2986 RMK AO1 T02060106
MALTA       |KM75 272255Z AUTO 00000KT 40SM 22/10 A2986 RMK AO1 T02220100
MALTA       |KM75 272315Z AUTO 23007KT 200V260 40SM 22/11 A2986 RMK AO1 T02220106
MALTA       |KM75 272335Z AUTO 00000KT 40SM 23/10 A2985 RMK AO1 T02280100
MALTA       |KM75 272355Z AUTO 00000KT 40SM 23/10 A2985 RMK AO1 T02330100
MALTA       |KM75 280015Z AUTO 00000KT 40SM 23/09 A2985 RMK AO1 T02280094
MALTA       |KM75 280035Z AUTO 25005KT 40SM 22/09 A2985 RMK AO1 T02220094
MALTA       |KM75 280055Z AUTO 25006KT 40SM 22/10 A2985 RMK AO1 T02220100
MALTA       |KM75 280115Z AUTO 25005KT 40SM 22/11 A2985 RMK AO1 T02220106
MALTA       |KM75 280135Z AUTO 00000KT 40SM 22/10 A2985 RMK AO1 T02170100
MALTA       |KM75 280155Z AUTO 00000KT 40SM 21/11 A2985 RMK AO1 T02110111
SCOBEY      |K9S2 271355Z AUTO 00000KT 15SM 14/07 A2994 RMK AO1 T01390067
SCOBEY      |K9S2 271455Z AUTO 00000KT 25SM 14/07 A2995 RMK AO1 T01390067
SCOBEY      |K9S2 271555Z AUTO 26008KT 40SM 16/09 A2995 RMK AO1 T01560094
SCOBEY      |K9S2 271655Z AUTO 00000KT 40SM 17/09 A2996 RMK AO1 T01670094
SCOBEY      |K9S2 271755Z AUTO 00000KT 40SM 17/09 A2996 RMK AO1 T01720094
SCOBEY      |K9S2 271855Z AUTO 00000KT 40SM 18/10 A2995 RMK AO1 T01780100
SCOBEY      |K9S2 271955Z AUTO 36005KT 40SM 21/09 A2993 RMK AO1 T02060089
SCOBEY      |K9S2 272055Z AUTO 34005KT 40SM 21/08 A2992 RMK AO1 T02110078
SCOBEY      |K9S2 272155Z AUTO 06006KT 40SM 22/08 A2990 RMK AO1 T02220078
SCOBEY      |K9S2 272255Z AUTO 00000KT 40SM 23/08 A2989 RMK AO1 T02280083
SCOBEY      |K9S2 272355Z AUTO 36009G15KT 40SM 21/11 A2988 RMK AO1 T02060106
SCOBEY      |K9S2 280055Z AUTO 04005KT 40SM 16/11 A2989 RMK AO1 T01560111
SCOBEY      |K9S2 280155Z AUTO 08011G16KT 25SM 15/11 A2990 RMK AO1 T01500111
EKALAKA     |K97M 271355Z AUTO 11009KT 40SM 16/10 A2994 RMK AO1 T01560100
EKALAKA     |K97M 271455Z AUTO 11007KT 40SM 17/10 A2995 RMK AO1 T01720100
EKALAKA     |K97M 271555Z AUTO 13009G14KT 40SM 19/11 A2995 RMK AO1 T01890106
EKALAKA     |K97M 271655Z AUTO 12008KT 40SM 19/11 A2995 RMK AO1 T01940106
EKALAKA     |K97M 271755Z AUTO 15006KT 40SM 21/11 A2995 RMK AO1 T02110106
EKALAKA     |K97M 271855Z AUTO 25005KT 40SM 22/12 A2993 RMK AO1 T02170122
EKALAKA     |K97M 271955Z AUTO 00000KT 40SM 19/12 A2993 RMK AO1 T01890122
EKALAKA     |K97M 272055Z AUTO 36010G16KT 40SM 17/12 A2996 RMK AO1 T01670122
EKALAKA     |K97M 272155Z AUTO 01008KT 40SM 16/11 A2994 RMK AO1 T01560106
EKALAKA     |K97M 272255Z AUTO 01006KT 40SM 16/09 A2993 RMK AO1 T01610094
EKALAKA     |K97M 272355Z AUTO 07004KT 40SM 18/11 A2993 RMK AO1 T01780106
EKALAKA     |K97M 280055Z AUTO 00000KT 40SM 17/11 A2992 RMK AO1 T01720106
EKALAKA     |K97M 280155Z AUTO 00000KT 40SM 15/11 A2993 RMK AO1 T01500106
MALTA       |KM75 271555Z AUTO 05008KT 40SM 17/11 A2993 RMK AO1 T01670111
MALTA       |KM75 271655Z AUTO 02006KT 40SM 18/11 A2993 RMK AO1 T01830106
MALTA       |KM75 271755Z AUTO 07004KT 40SM 20/11 A2992 RMK AO1 T02000111
MALTA       |KM75 271855Z AUTO 04004KT 40SM 22/12 A2990 RMK AO1 T02170117
MALTA       |KM75 271955Z AUTO 00000KT 40SM 23/10 A2989 RMK AO1 T02280100
MALTA       |KM75 272055Z AUTO 00000KT 40SM 23/09 A2988 RMK AO1 T02280089
MALTA       |KM75 272155Z AUTO 26010KT 40SM 21/11 A2986 RMK AO1 T02110106
MALTA       |KM75 272255Z AUTO 00000KT 40SM 22/10 A2986 RMK AO1 T02220100
MALTA       |KM75 272355Z AUTO 00000KT 40SM 23/10 A2985 RMK AO1 T02330100
MALTA       |KM75 280055Z AUTO 25006KT 40SM 22/10 A2985 RMK AO1 T02220100
MALTA       |KM75 280155Z AUTO 00000KT 40SM 21/11 A2985 RMK AO1 T02110111
ROUNDUP     |KRPX 271555Z AUTO 00000KT 40SM 16/10 A2992 RMK AO1 T01610100
ROUNDUP     |KRPX 271755Z AUTO 05007KT 40SM 17/10 A2990 RMK AO1 T01720100
ROUNDUP     |KRPX 271955Z AUTO 00000KT 25SM 12/09 A2992 RMK AO1 T01170089
ROUNDUP     |KRPX 272055Z AUTO 01005KT 40SM 16/09 A2990 RMK AO1 T01610089
ROUNDUP     |KRPX 272155Z AUTO 09004KT 40SM 18/07 A2988 RMK AO1 T01780072
ROUNDUP     |KRPX 272255Z AUTO 05004KT 40SM 19/08 A2987 RMK AO1 T01890078
ROUNDUP     |KRPX 272355Z AUTO 00000KT 40SM 19/08 A2987 RMK AO1 T01890078
ROUNDUP     |KRPX 280055Z AUTO 00000KT 40SM 18/08 A2987 RMK AO1 T01780078
ROUNDUP     |KRPX 280155Z AUTO 00000KT 40SM 17/09 A2988 RMK AO1 T01670089
TWIN BRIDGES|K7S1 271555Z AUTO 00000KT 40SM 13/07 A3004 RMK AO1 T01280072
TWIN BRIDGES|K7S1 271655Z AUTO 00000KT 40SM 14/07 A3003 RMK AO1 T01390067
TWIN BRIDGES|K7S1 271755Z AUTO 00000KT 40SM 16/07 A3001 RMK AO1 T01560067
TWIN BRIDGES|K7S1 271855Z AUTO 00000KT 40SM 16/06 A3001 RMK AO1 T01610056
TWIN BRIDGES|K7S1 271955Z AUTO 25013G19KT 40SM 13/04 A3003 RMK AO1 T01280044
TWIN BRIDGES|K7S1 272055Z AUTO 08005KT 40SM 13/07 A3003 RMK AO1 T01280067
TWIN BRIDGES|K7S1 272155Z AUTO 12006KT 40SM 15/07 A3002 RMK AO1 T01500067
TWIN BRIDGES|K7S1 272255Z AUTO 12012G17KT 40SM 16/06 A3002 RMK AO1 T01560061
TWIN BRIDGES|K7S1 272355Z AUTO 25015KT 40SM 12/05 A3003 RMK AO1 T01220050
TWIN BRIDGES|K7S1 280055Z AUTO 11010G14KT 25SM 11/07 A3003 RMK AO1 T01060067
TWIN BRIDGES|K7S1 280155Z AUTO 00000KT 40SM 12/05 A3003 RMK AO1 T01170050




USA.gov is the U.S. government's official web portal to all federal, state and local government web resources and services.